X  Schließen Metar Luftfahrt Wetterdaten     EDVE Braunschweig-Wolfsburg Airport
Temperatur
-1°C Temperatur
-1°C Taupunkt
100% Feuchtigkeit



Wind
3 KM/H
2 MPH
1 M/S
2 KTS



120°
OSO
Aktuelle Wetterlage

Teilweise bewölkt Teilweise bewölkt
Luftdruck 1018.92 (hPa) - 30.09 (inHg)
Sichtweite 3.1 (Meile) - 5 (km)
Flughafen
Flughafen Code EDVE

Position : Braunschweig-Wolfsburg Airport
Entfernung: 35 (km)

Metar:
EDVE 250050Z AUTO 12002KT 4700 R26/1200U // FEW007/// M01/M01 Q1019

Zeit: 25-11-2020 01:50 CET